createdAt,value
2022-10-15T00:01:30.093Z,38.78
2022-10-15T00:03:58.364Z,38.35
2022-10-15T00:06:26.583Z,37.10
2022-10-15T00:08:56.230Z,37.92
2022-10-15T00:11:27.564Z,38.40
2022-10-15T00:13:57.711Z,36.78
2022-10-15T00:16:29.470Z,37.35
2022-10-15T00:18:58.457Z,38.80
2022-10-15T00:21:27.124Z,38.65
2022-10-15T00:23:57.029Z,37.33
2022-10-15T00:26:27.085Z,39.22
2022-10-15T00:28:57.271Z,38.03
2022-10-15T00:31:27.236Z,40.25
2022-10-15T00:33:56.472Z,39.25
2022-10-15T00:36:26.003Z,39.55
2022-10-15T00:38:56.194Z,39.92
2022-10-15T00:41:26.185Z,40.50
2022-10-15T00:43:56.666Z,40.92
2022-10-15T00:46:28.051Z,41.60
2022-10-15T00:48:59.911Z,40.05
2022-10-15T00:51:34.174Z,39.88
2022-10-15T00:54:03.936Z,41.85
2022-10-15T00:56:33.966Z,41.97
2022-10-15T00:59:02.620Z,42.17
2022-10-15T01:01:30.927Z,40.67
2022-10-15T01:03:59.568Z,40.30
2022-10-15T01:06:28.096Z,42.40
2022-10-15T01:08:56.586Z,44.13
2022-10-15T01:11:37.334Z,45.67
2022-10-15T01:14:16.671Z,42.70
2022-10-15T01:16:50.790Z,45.33
2022-10-15T01:19:32.190Z,44.13
2022-10-15T01:22:06.044Z,45.03
2022-10-15T01:24:45.500Z,43.42
2022-10-15T01:27:37.295Z,42.78
2022-10-15T01:30:31.152Z,42.30
2022-10-15T01:33:18.977Z,43.45
2022-10-15T01:35:51.344Z,44.25
2022-10-15T01:38:31.882Z,44.47
2022-10-15T01:41:03.492Z,43.65
2022-10-15T01:43:37.943Z,45.72
2022-10-15T01:46:37.825Z,42.83
2022-10-15T01:49:10.277Z,45.33
2022-10-15T01:51:41.237Z,45.85
2022-10-15T01:54:13.474Z,47.22
2022-10-15T01:56:46.846Z,47.72
2022-10-15T01:59:21.167Z,45.50
2022-10-15T02:01:51.149Z,46.50
2022-10-15T02:04:22.818Z,45.75
2022-10-15T02:06:55.869Z,46.95
2022-10-15T02:09:34.828Z,48.47
2022-10-15T02:12:13.228Z,46.90
2022-10-15T02:14:52.005Z,47.85
2022-10-15T02:17:29.213Z,46.97
2022-10-15T02:20:03.494Z,46.25
2022-10-15T02:22:36.544Z,46.85
2022-10-15T02:25:09.373Z,47.47
2022-10-15T02:27:40.401Z,45.88
2022-10-15T02:30:10.556Z,47.92
2022-10-15T02:32:42.434Z,46.72
2022-10-15T02:35:13.096Z,46.33
2022-10-15T02:37:49.655Z,48.75
2022-10-15T02:40:23.401Z,48.83
2022-10-15T02:42:52.786Z,51.28
2022-10-15T02:45:21.241Z,48.90
2022-10-15T02:47:51.009Z,49.53
2022-10-15T02:50:20.101Z,47.50
2022-10-15T02:52:48.292Z,46.88
2022-10-15T02:55:16.566Z,47.97
2022-10-15T02:57:45.115Z,48.90
2022-10-15T03:00:14.510Z,49.10
2022-10-15T03:02:42.789Z,48.78
2022-10-15T03:05:12.897Z,48.03
2022-10-15T03:07:41.140Z,46.63
2022-10-15T03:10:10.089Z,48.17
2022-10-15T03:12:38.380Z,46.38
2022-10-15T03:15:08.554Z,49.25
2022-10-15T03:17:37.562Z,48.97
2022-10-15T03:20:06.420Z,48.83
2022-10-15T03:22:39.684Z,49.63
2022-10-15T03:25:08.502Z,49.70
2022-10-15T03:27:36.862Z,46.85
2022-10-15T03:30:12.722Z,48.78
2022-10-15T03:35:10.545Z,47.17
2022-10-15T03:37:40.053Z,46.92
2022-10-15T03:40:13.808Z,46.30
2022-10-15T03:42:44.340Z,49.30
2022-10-15T03:45:13.255Z,49.03
2022-10-15T03:47:41.624Z,49.28
2022-10-15T03:50:10.515Z,47.88
2022-10-15T03:52:41.477Z,46.03
2022-10-15T03:55:14.405Z,47.72
2022-10-15T03:57:44.330Z,48.63
2022-10-15T04:00:15.017Z,47.90
2022-10-15T04:02:43.183Z,50.75
2022-10-15T04:05:24.128Z,52.35
2022-10-15T04:07:58.363Z,49.85
2022-10-15T04:10:29.638Z,50.92
2022-10-15T04:12:57.916Z,51.00
2022-10-15T04:15:28.210Z,50.95
2022-10-15T04:18:02.269Z,51.20
2022-10-15T04:20:32.141Z,51.65
2022-10-15T04:23:13.475Z,50.22
2022-10-15T04:25:46.195Z,50.95
2022-10-15T04:28:14.394Z,47.28
2022-10-15T04:30:42.705Z,49.53
2022-10-15T04:33:13.835Z,50.15
2022-10-15T04:35:42.168Z,49.53
2022-10-15T04:38:15.637Z,49.42
2022-10-15T04:41:09.756Z,51.40
2022-10-15T04:44:10.373Z,48.58
2022-10-15T04:46:40.046Z,48.70
2022-10-15T04:49:26.223Z,47.75
2022-10-15T04:51:54.759Z,46.90
2022-10-15T04:54:50.398Z,46.33
2022-10-15T04:57:19.713Z,47.78
2022-10-15T04:59:48.088Z,47.00
2022-10-15T05:02:43.556Z,45.88
2022-10-15T05:05:23.082Z,46.00
2022-10-15T05:08:01.160Z,46.45
2022-10-15T05:10:32.902Z,48.00
2022-10-15T05:13:05.302Z,46.38
2022-10-15T05:15:36.236Z,45.45
2022-10-15T05:18:08.217Z,45.53
2022-10-15T05:20:47.153Z,43.55
2022-10-15T05:23:18.961Z,44.70
2022-10-15T05:26:00.816Z,43.25
2022-10-15T05:28:29.080Z,43.42
2022-10-15T05:30:57.262Z,45.17
2022-10-15T05:33:28.432Z,45.70
2022-10-15T05:35:56.744Z,44.97
2022-10-15T05:38:25.577Z,46.03
2022-10-15T05:40:53.792Z,45.13
2022-10-15T05:43:26.906Z,44.70
2022-10-15T05:45:55.731Z,45.55
2022-10-15T05:48:24.853Z,41.42
2022-10-15T05:50:53.216Z,46.65
2022-10-15T05:53:26.544Z,41.67
2022-10-15T05:56:01.088Z,43.15
2022-10-15T05:58:37.312Z,42.22
2022-10-15T06:01:07.835Z,43.70
2022-10-15T06:03:40.563Z,43.47
2022-10-15T06:06:16.158Z,41.53
2022-10-15T06:08:44.416Z,44.78
2022-10-15T06:11:12.921Z,45.40
2022-10-15T06:13:43.807Z,43.58
2022-10-15T06:16:13.021Z,44.10
2022-10-15T06:18:41.158Z,42.35
2022-10-15T06:21:09.526Z,45.97
2022-10-15T06:23:37.821Z,44.95
2022-10-15T06:26:07.533Z,42.03
2022-10-15T06:28:36.656Z,45.42
2022-10-15T06:31:06.761Z,42.67
2022-10-15T06:33:35.886Z,40.38
2022-10-15T06:36:05.644Z,42.00
2022-10-15T06:38:34.469Z,41.50
2022-10-15T06:41:05.506Z,40.15
2022-10-15T06:43:35.244Z,37.85
2022-10-15T06:46:06.367Z,38.33
2022-10-15T06:48:35.064Z,38.08
2022-10-15T06:51:04.641Z,36.50
2022-10-15T06:53:34.279Z,36.85
2022-10-15T06:56:04.198Z,36.60
2022-10-15T06:58:37.498Z,37.22
2022-10-15T07:01:08.980Z,35.88
2022-10-15T07:03:39.028Z,33.65
2022-10-15T07:06:10.063Z,35.42
2022-10-15T07:08:38.533Z,34.70
2022-10-15T07:11:08.819Z,35.97
2022-10-15T07:13:37.272Z,35.45
2022-10-15T07:16:09.172Z,36.25
2022-10-15T07:18:38.516Z,34.90
2022-10-15T07:21:08.320Z,37.60
2022-10-15T07:23:36.563Z,36.33
2022-10-15T07:26:04.747Z,35.55
2022-10-15T07:28:33.089Z,36.00
2022-10-15T07:31:05.982Z,35.67
2022-10-15T07:33:36.018Z,35.53
2022-10-15T07:36:06.308Z,36.42
2022-10-15T07:38:34.674Z,32.97
2022-10-15T07:41:03.884Z,32.53
2022-10-15T07:43:33.648Z,32.60
2022-10-15T07:46:02.037Z,31.70
2022-10-15T07:48:30.465Z,29.80
2022-10-15T07:51:01.334Z,29.35
2022-10-15T07:53:29.771Z,28.42
2022-10-15T07:56:01.934Z,27.17
2022-10-15T07:58:34.721Z,27.35
2022-10-15T08:01:04.037Z,26.25
2022-10-15T08:03:32.382Z,25.35
2022-10-15T08:06:03.084Z,25.95
2022-10-15T08:08:31.657Z,25.45
2022-10-15T08:10:59.971Z,25.70
2022-10-15T08:13:28.104Z,23.85
2022-10-15T08:16:00.175Z,23.38
2022-10-15T08:18:29.013Z,24.17
2022-10-15T08:21:01.180Z,24.45
2022-10-15T08:23:30.656Z,24.10
2022-10-15T08:26:00.480Z,22.48
2022-10-15T08:28:29.154Z,23.35
2022-10-15T08:31:02.695Z,25.40
2022-10-15T08:33:33.880Z,22.95
2022-10-15T08:36:02.525Z,23.92
2022-10-15T08:38:33.291Z,23.45
2022-10-15T08:41:02.814Z,24.02
2022-10-15T08:43:36.356Z,23.60
2022-10-15T08:46:10.745Z,23.67
2022-10-15T08:48:43.652Z,23.55
2022-10-15T08:51:14.875Z,23.90
2022-10-15T08:53:49.652Z,23.90
2022-10-15T08:56:22.387Z,22.45
2022-10-15T08:58:58.633Z,22.83
2022-10-15T09:01:33.778Z,23.58
2022-10-15T09:04:15.845Z,22.42
2022-10-15T09:06:44.381Z,20.25
2022-10-15T09:09:25.256Z,22.98
2022-10-15T09:12:00.508Z,21.15
2022-10-15T09:14:34.343Z,21.45
2022-10-15T09:17:07.461Z,22.17
2022-10-15T09:19:37.994Z,23.10
2022-10-15T09:22:13.348Z,20.60
2022-10-15T09:24:43.056Z,22.00
2022-10-15T09:27:19.006Z,21.73
2022-10-15T09:29:51.349Z,21.70
2022-10-15T09:32:27.432Z,22.13
2022-10-15T09:35:01.964Z,21.30
2022-10-15T09:37:34.865Z,20.52
2022-10-15T09:40:28.546Z,21.02
2022-10-15T09:42:59.565Z,21.45
2022-10-15T09:45:27.904Z,21.67
2022-10-15T09:48:00.296Z,21.67
2022-10-15T09:50:39.552Z,21.15
2022-10-15T09:53:21.286Z,21.30
2022-10-15T09:55:57.556Z,21.83
2022-10-15T09:58:30.767Z,21.55
2022-10-15T10:01:02.265Z,21.05
2022-10-15T10:03:37.947Z,20.83
2022-10-15T10:06:09.682Z,20.45
2022-10-15T10:08:53.016Z,20.60
2022-10-15T10:11:24.894Z,21.73
2022-10-15T10:13:56.226Z,20.98
2022-10-15T10:16:25.404Z,21.35
2022-10-15T10:19:05.930Z,20.63
2022-10-15T10:21:36.030Z,19.92
2022-10-15T10:24:30.270Z,21.08
2022-10-15T10:27:00.926Z,20.42
2022-10-15T10:29:35.279Z,20.25
2022-10-15T10:32:13.139Z,20.35
2022-10-15T10:34:50.059Z,20.25
2022-10-15T10:37:21.125Z,19.70
2022-10-15T10:39:54.481Z,18.15
2022-10-15T10:42:34.073Z,18.58
2022-10-15T10:45:20.319Z,18.25
2022-10-15T10:47:48.855Z,18.33
2022-10-15T10:50:37.789Z,18.20
2022-10-15T10:53:21.606Z,17.05
2022-10-15T10:55:50.640Z,18.38
2022-10-15T10:58:26.280Z,17.08
2022-10-15T11:00:56.528Z,17.33
2022-10-15T11:03:33.657Z,18.02
2022-10-15T11:06:27.464Z,17.33
2022-10-15T11:09:08.973Z,17.63
2022-10-15T11:11:48.156Z,15.82
2022-10-15T11:14:27.945Z,16.85
2022-10-15T11:17:02.343Z,17.50
2022-10-15T11:22:43.417Z,16.42
2022-10-15T11:25:23.663Z,16.77
2022-10-15T11:28:06.917Z,16.85
2022-10-15T11:30:47.028Z,15.95
2022-10-15T11:33:34.984Z,16.27
2022-10-15T11:36:30.858Z,16.48
2022-10-15T11:39:07.586Z,16.88
2022-10-15T11:41:45.449Z,15.50
2022-10-15T11:44:34.188Z,15.98
2022-10-15T11:47:30.010Z,17.83
2022-10-15T11:50:11.329Z,17.42
2022-10-15T11:52:53.661Z,16.83
2022-10-15T11:55:25.475Z,15.75
2022-10-15T11:57:58.997Z,16.50
2022-10-15T12:00:33.797Z,17.30
2022-10-15T12:03:13.402Z,16.38
2022-10-15T12:05:47.728Z,15.52
2022-10-15T12:08:16.422Z,16.02
2022-10-15T12:11:01.175Z,15.90
2022-10-15T12:13:39.165Z,16.00
2022-10-15T12:16:15.647Z,15.85
2022-10-15T12:18:51.200Z,15.38
2022-10-15T12:21:37.920Z,16.42
2022-10-15T12:24:10.737Z,15.38
2022-10-15T12:26:39.113Z,15.48
2022-10-15T12:29:20.817Z,16.48
2022-10-15T12:31:51.233Z,15.15
2022-10-15T12:34:38.991Z,15.80
2022-10-15T12:37:17.536Z,15.00
2022-10-15T12:39:52.320Z,15.50
2022-10-15T12:42:24.813Z,15.30
2022-10-15T12:44:53.538Z,15.05
2022-10-15T12:47:47.355Z,16.65
2022-10-15T12:50:21.232Z,15.30
2022-10-15T12:52:55.460Z,15.98
2022-10-15T12:55:32.642Z,15.95
2022-10-15T12:58:03.646Z,16.80
2022-10-15T13:00:43.604Z,15.98
2022-10-15T13:03:35.500Z,16.02
2022-10-15T13:06:26.695Z,16.38
2022-10-15T13:08:57.237Z,16.65
2022-10-15T13:11:29.520Z,16.17
2022-10-15T13:14:00.843Z,15.60
2022-10-15T13:16:30.447Z,16.92
2022-10-15T13:19:00.349Z,17.05
2022-10-15T13:21:50.768Z,16.25
2022-10-15T13:24:21.708Z,16.95
2022-10-15T13:26:51.135Z,16.65
2022-10-15T13:29:21.785Z,17.20
2022-10-15T13:31:50.989Z,16.27
2022-10-15T13:34:27.284Z,16.52
2022-10-15T13:36:59.172Z,15.85
2022-10-15T13:42:10.206Z,17.50
2022-10-15T13:44:38.319Z,16.98
2022-10-15T13:47:26.105Z,16.65
2022-10-15T13:50:18.340Z,17.27
2022-10-15T13:52:51.652Z,17.17
2022-10-15T13:55:22.855Z,16.83
2022-10-15T13:57:53.154Z,17.48
2022-10-15T14:00:27.628Z,18.20
2022-10-15T14:03:10.330Z,17.83
2022-10-15T14:05:38.520Z,18.27
2022-10-15T14:08:17.106Z,18.23
2022-10-15T14:10:45.286Z,17.48
2022-10-15T14:13:13.658Z,20.00
2022-10-15T14:18:35.346Z,18.42
2022-10-15T14:21:04.141Z,19.85
2022-10-15T14:23:33.794Z,18.80
2022-10-15T14:26:04.126Z,20.10
2022-10-15T14:28:35.122Z,19.38
2022-10-15T14:31:03.812Z,20.77
2022-10-15T14:33:50.254Z,20.60
2022-10-15T14:36:27.670Z,18.73
2022-10-15T14:39:17.600Z,19.70
2022-10-15T14:41:57.444Z,20.25
2022-10-15T14:44:25.631Z,19.35
2022-10-15T14:47:03.459Z,19.05
2022-10-15T14:49:34.687Z,19.77
2022-10-15T14:52:07.307Z,19.95
2022-10-15T14:54:41.716Z,20.88
2022-10-15T14:57:19.498Z,18.83
2022-10-15T14:59:47.807Z,18.73
2022-10-15T15:02:17.528Z,21.02
2022-10-15T15:04:48.134Z,19.30
2022-10-15T15:07:21.395Z,20.30
2022-10-15T15:09:52.294Z,18.70
2022-10-15T15:12:27.071Z,19.92
2022-10-15T15:14:56.559Z,21.52
2022-10-15T15:17:26.458Z,19.92
2022-10-15T15:19:57.247Z,19.25
2022-10-15T15:22:29.472Z,20.70
2022-10-15T15:25:01.252Z,21.63
2022-10-15T15:27:31.003Z,20.58
2022-10-15T15:29:59.437Z,19.52
2022-10-15T15:32:27.777Z,20.35
2022-10-15T15:34:57.567Z,19.00
2022-10-15T15:37:27.326Z,19.77
2022-10-15T15:39:56.406Z,21.13
2022-10-15T15:42:27.688Z,19.48
2022-10-15T15:44:56.178Z,19.95
2022-10-15T15:47:24.373Z,21.90
2022-10-15T15:49:52.509Z,20.80
2022-10-15T15:52:20.642Z,20.85
2022-10-15T15:54:48.750Z,19.48
2022-10-15T15:57:16.904Z,19.70
2022-10-15T15:59:46.425Z,20.80
2022-10-15T16:02:14.529Z,19.60
2022-10-15T16:04:45.427Z,21.40
2022-10-15T16:07:13.752Z,20.25
2022-10-15T16:09:42.160Z,20.58
2022-10-15T16:12:10.300Z,21.55
2022-10-15T16:14:38.462Z,19.77
2022-10-15T16:17:08.173Z,21.50
2022-10-15T16:19:36.430Z,21.08
2022-10-15T16:22:04.853Z,20.10
2022-10-15T16:24:33.765Z,22.35
2022-10-15T16:27:01.919Z,22.20
2022-10-15T16:29:30.066Z,21.42
2022-10-15T16:31:58.278Z,23.98
2022-10-15T16:34:27.948Z,23.00
2022-10-15T16:36:56.331Z,21.50
2022-10-15T16:39:24.555Z,23.52
2022-10-15T16:41:52.808Z,22.52
2022-10-15T16:44:21.040Z,22.85
2022-10-15T16:46:49.278Z,20.85
2022-10-15T16:49:17.486Z,23.67
2022-10-15T16:51:47.214Z,22.05
2022-10-15T16:54:15.928Z,22.27
2022-10-15T16:56:45.378Z,22.80
2022-10-15T16:59:16.002Z,23.58
2022-10-15T17:01:44.299Z,23.20
2022-10-15T17:04:12.721Z,23.23
2022-10-15T17:06:40.887Z,24.45
2022-10-15T17:09:10.653Z,24.88
2022-10-15T17:11:41.151Z,25.30
2022-10-15T17:14:11.380Z,26.15
2022-10-15T17:16:41.139Z,25.42
2022-10-15T17:19:10.202Z,25.45
2022-10-15T17:21:40.376Z,26.65
2022-10-15T17:24:14.158Z,27.10
2022-10-15T17:26:44.003Z,27.25
2022-10-15T17:29:16.300Z,26.75
2022-10-15T17:31:44.716Z,29.02
2022-10-15T17:34:13.953Z,27.67
2022-10-15T17:36:45.498Z,28.70
2022-10-15T17:39:17.237Z,28.33
2022-10-15T17:41:45.822Z,28.27
2022-10-15T17:44:14.386Z,29.27
2022-10-15T17:46:43.134Z,29.48
2022-10-15T17:49:11.725Z,27.88
2022-10-15T17:51:40.763Z,28.60
2022-10-15T17:54:10.330Z,29.63
2022-10-15T17:56:40.071Z,28.88
2022-10-15T17:59:09.910Z,28.58
2022-10-15T18:01:57.144Z,30.10
2022-10-15T18:04:27.006Z,30.08
2022-10-15T18:06:55.189Z,29.35
2022-10-15T18:09:27.188Z,29.48
2022-10-15T18:12:03.627Z,28.90
2022-10-15T18:14:35.154Z,30.95
2022-10-15T18:17:03.350Z,28.17
2022-10-15T18:19:34.316Z,30.15
2022-10-15T18:22:02.760Z,29.15
2022-10-15T18:24:30.966Z,27.83
2022-10-15T18:27:03.554Z,28.65
2022-10-15T18:29:31.824Z,28.73
2022-10-15T18:32:00.146Z,29.80
2022-10-15T18:34:33.210Z,28.70
2022-10-15T18:37:01.436Z,28.05
2022-10-15T18:39:30.682Z,29.25
2022-10-15T18:41:58.914Z,27.90
2022-10-15T18:44:29.378Z,28.45
2022-10-15T18:46:57.943Z,29.33
2022-10-15T18:49:26.191Z,26.70
2022-10-15T18:51:55.386Z,26.90
2022-10-15T18:54:24.316Z,25.95
2022-10-15T18:56:53.626Z,27.00
2022-10-15T18:59:22.376Z,26.63
2022-10-15T19:01:55.978Z,27.00
2022-10-15T19:04:24.939Z,27.13
2022-10-15T19:06:55.078Z,24.75
2022-10-15T19:09:26.097Z,24.40
2022-10-15T19:11:56.167Z,24.75
2022-10-15T19:14:28.039Z,25.25
2022-10-15T19:16:57.998Z,25.80
2022-10-15T19:19:27.040Z,26.23
2022-10-15T19:21:58.578Z,27.30
2022-10-15T19:24:26.832Z,27.17
2022-10-15T19:26:55.197Z,25.60
2022-10-15T19:29:23.481Z,26.17
2022-10-15T19:31:53.983Z,26.33
2022-10-15T19:34:23.785Z,27.42
2022-10-15T19:36:52.292Z,24.83
2022-10-15T19:39:24.659Z,26.50
2022-10-15T19:41:53.559Z,25.77
2022-10-15T19:44:25.713Z,25.63
2022-10-15T19:46:54.973Z,25.05
2022-10-15T19:49:25.175Z,26.30
2022-10-15T19:51:53.604Z,23.63
2022-10-15T19:54:21.926Z,24.90
2022-10-15T19:56:50.116Z,24.13
2022-10-15T19:59:18.419Z,24.33
2022-10-15T20:01:46.769Z,24.70
2022-10-15T20:04:14.978Z,25.70
2022-10-15T20:06:44.896Z,24.63
2022-10-15T20:09:13.071Z,25.02
2022-10-15T20:11:41.740Z,23.25
2022-10-15T20:14:09.973Z,23.13
2022-10-15T20:16:38.705Z,23.95
2022-10-15T20:19:07.382Z,23.90
2022-10-15T20:21:35.631Z,23.52
2022-10-15T20:24:05.506Z,21.83
2022-10-15T20:26:33.891Z,23.02
2022-10-15T20:29:02.424Z,22.75
2022-10-15T20:31:33.029Z,23.38
2022-10-15T20:34:01.962Z,22.15
2022-10-15T20:36:30.723Z,21.83
2022-10-15T20:39:00.770Z,22.90
2022-10-15T20:41:33.287Z,22.15
2022-10-15T20:44:01.633Z,22.63
2022-10-15T20:46:34.014Z,22.10
2022-10-15T20:49:09.170Z,22.38
2022-10-15T20:51:40.915Z,23.75
2022-10-15T20:54:09.653Z,22.95
2022-10-15T20:56:39.326Z,24.20
2022-10-15T20:59:08.016Z,23.73
2022-10-15T21:01:36.860Z,23.10
2022-10-15T21:04:06.178Z,23.67
2022-10-15T21:06:34.847Z,23.90
2022-10-15T21:09:03.079Z,23.33
2022-10-15T21:11:31.278Z,22.45
2022-10-15T21:14:01.822Z,23.10
2022-10-15T21:16:30.101Z,23.27
2022-10-15T21:18:58.219Z,23.48
2022-10-15T21:21:26.452Z,23.38
2022-10-15T21:23:54.847Z,21.88
2022-10-15T21:26:23.029Z,22.80
2022-10-15T21:28:55.333Z,21.73
2022-10-15T21:31:25.509Z,21.02
2022-10-15T21:33:55.239Z,22.10
2022-10-15T21:36:26.313Z,22.23
2022-10-15T21:38:56.142Z,22.38
2022-10-15T21:41:25.274Z,22.00
2022-10-15T21:43:54.098Z,20.77
2022-10-15T21:46:22.297Z,21.27
2022-10-15T21:48:53.176Z,20.50
2022-10-15T21:51:23.853Z,21.52
2022-10-15T21:53:52.380Z,20.90
2022-10-15T21:56:21.415Z,21.73
2022-10-15T21:58:49.944Z,20.70
2022-10-15T22:01:20.904Z,20.75
2022-10-15T22:03:49.597Z,21.35
2022-10-15T22:06:21.405Z,20.70
2022-10-15T22:08:49.729Z,21.02
2022-10-15T22:11:20.464Z,20.38
2022-10-15T22:13:52.019Z,18.52
2022-10-15T22:16:21.195Z,19.65
2022-10-15T22:18:49.340Z,19.80
2022-10-15T22:21:20.669Z,19.50
2022-10-15T22:23:50.964Z,20.35
2022-10-15T22:26:21.085Z,20.45
2022-10-15T22:28:49.522Z,20.48
2022-10-15T22:31:18.601Z,20.40
2022-10-15T22:33:47.533Z,21.25
2022-10-15T22:36:19.386Z,20.30
2022-10-15T22:38:49.258Z,17.70
2022-10-15T22:41:17.533Z,18.23
2022-10-15T22:43:45.972Z,21.00
2022-10-15T22:46:14.952Z,20.27
2022-10-15T22:48:44.066Z,18.50
2022-10-15T22:51:14.451Z,19.98
2022-10-15T22:53:44.469Z,18.17
2022-10-15T22:56:15.290Z,19.02
2022-10-15T22:58:44.087Z,19.20
2022-10-15T23:01:14.772Z,18.23
2022-10-15T23:03:44.606Z,17.92
2022-10-15T23:06:13.451Z,18.65
2022-10-15T23:08:43.865Z,19.27
2022-10-15T23:11:15.238Z,18.38
2022-10-15T23:13:44.260Z,16.90
2022-10-15T23:16:15.094Z,18.15
2022-10-15T23:18:44.716Z,17.25
2022-10-15T23:21:14.904Z,17.05
2022-10-15T23:23:45.778Z,18.88
2022-10-15T23:26:15.965Z,17.08
2022-10-15T23:28:45.127Z,17.80
2022-10-15T23:31:16.840Z,18.48
2022-10-15T23:33:45.135Z,18.52
2022-10-15T23:36:13.908Z,17.45
2022-10-15T23:38:42.151Z,17.73
2022-10-15T23:41:12.141Z,16.70
2022-10-15T23:43:40.557Z,17.60
2022-10-15T23:46:09.485Z,16.65
2022-10-15T23:48:37.628Z,17.23
2022-10-15T23:51:13.456Z,17.60
2022-10-15T23:53:41.788Z,17.30
2022-10-15T23:56:11.418Z,16.85
2022-10-15T23:58:39.898Z,17.48
